Aérodrome :
LOGIN :

S'inscrire | Disclaimer

   EN    FR    IT 

 










Légende :    VFR   VFR Marginal   IFR   IFR Intensif   IFR Très Intensif
Visi : 
Plafond : 
>= 8 km
>= 3000ft
5 à 8 km
1000 à 3000 ft
1500m à 5 km
500 à 1000 ft
800 à 1500m
200 à 500 ft
< 800m
< 200 ft
Symboles :   Orages  Brouillard  Fortes neiges  Fortes précipitations  Vent > 20 kt
SIGMETs :   Divers  Orages  Givrage  Turbulence  Onde Orograph.  Cendres Volcan.






- Altitude de l'aérodrome : 137 ft


LIPS - Istrana AFB Treviso

DERNIER METAR :
  • 182155Z /////KT 5000 MIFG NSC 07/06 Q1024 RMK SKC VIS MIN 5000 WIND THR26 05002KT WIND THR08 09003KT WHT

METARs EXPIRÉS :
  • 182055Z /////KT 7000 NSC 07/07 Q1023 RMK SKC VIS MIN 7000 WIND THR26 08002KT WIND THR08 12003KT WHT
  • 181955Z /////KT 7000 NSC 07/07 Q1023 RMK SKC VIS MIN 7000 WIND THR26 03002KT WIND THR08 05003KT WHT

TAF TAF LIPS
Valide du 18 à 21h jusqu'au 19 à 06h UTC


182000Z 1821/1906 04005KT 5000 BR SCT070
TEMPO 1822/1906 1200 MIFG SCT008



MET'MAP, la Météo Aéronautique d'un coup d'oeil ! - Copyright ORBIFLY Décembre 2007 - Disclaimer

ORBIFLY MET'MAP TEAM :

Programmation & Développement : Alexandra Zaïnal
Sur une idée originale de : Baudouin d'Aumeries
Assistance à la programmation : Marc-Olivier Méhu
Soutien technique & logistique : Manuel Goepfert

Contact : metmap@orbifly.com




SOURCES & CREDITS :

   NOAA